createdAt,value
2017-12-28T16:47:42.387Z,11020
2017-12-28T16:48:11.104Z,11284
2017-12-28T16:48:39.436Z,11552
2017-12-28T16:49:07.605Z,11812
2017-12-28T16:49:35.700Z,11564
2017-12-28T16:50:03.885Z,11552
2017-12-28T16:50:31.868Z,10960
2017-12-28T16:51:00.087Z,10708
2017-12-28T16:51:28.163Z,10516
2017-12-28T16:51:56.144Z,10352
2017-12-28T16:52:24.118Z,10176
2017-12-28T16:53:46.622Z,9708
2017-12-28T16:54:14.687Z,9580
2017-12-28T16:54:42.656Z,9452
2017-12-28T16:55:10.749Z,9344
2017-12-28T16:55:38.819Z,9260
2017-12-28T16:56:06.807Z,9176
2017-12-28T16:56:34.800Z,9120
2017-12-28T16:57:02.861Z,9068
2017-12-28T16:57:30.922Z,9036
2017-12-28T16:57:59.015Z,9012
2017-12-28T16:58:27.171Z,8992
2017-12-28T16:59:38.203Z,8912
2017-12-28T17:00:06.171Z,8860
2017-12-28T17:00:34.345Z,8804
2017-12-28T17:01:02.336Z,8744
2017-12-28T17:01:30.406Z,8668
2017-12-28T17:01:58.490Z,8596
2017-12-28T17:02:26.484Z,8528
2017-12-28T17:02:54.539Z,8484
2017-12-28T17:03:22.601Z,8444
2017-12-28T17:03:50.797Z,8412
2017-12-28T17:04:18.857Z,8392
2017-12-28T17:05:29.891Z,8372
2017-12-28T17:05:58.060Z,8372
2017-12-28T17:06:25.831Z,8292
2017-12-28T17:06:53.918Z,8236
2017-12-28T17:07:21.888Z,8192
2017-12-28T17:07:49.974Z,8148
2017-12-28T17:08:18.172Z,8104
2017-12-28T17:08:46.136Z,8076
2017-12-28T17:09:14.104Z,8052
2017-12-28T17:09:42.297Z,8040
2017-12-28T17:10:10.454Z,8072
2017-12-28T17:11:21.487Z,8188
2017-12-28T17:11:49.556Z,8236
2017-12-28T17:12:17.633Z,8284
2017-12-28T17:12:45.726Z,8332
2017-12-28T17:13:13.893Z,8356
2017-12-28T17:13:42.081Z,8368
2017-12-28T17:14:10.178Z,8372
2017-12-28T17:14:38.239Z,8384
2017-12-28T17:15:05.999Z,8416
2017-12-28T17:15:34.093Z,8504
2017-12-28T17:16:01.953Z,8596
2017-12-28T17:17:13.187Z,9032
2017-12-28T17:17:41.356Z,8936
2017-12-28T17:18:09.426Z,9048
2017-12-28T17:18:37.516Z,9188
2017-12-28T17:19:05.489Z,10444
2017-12-28T17:19:33.574Z,10120
2017-12-28T17:20:01.668Z,10352
2017-12-28T17:20:29.828Z,10524
2017-12-28T17:20:57.699Z,10268
2017-12-28T17:21:25.692Z,10572
2017-12-28T17:21:53.854Z,10260
2017-12-28T17:23:04.890Z,8860
2017-12-28T17:23:32.967Z,8608
2017-12-28T17:24:01.028Z,8468
2017-12-28T17:24:29.116Z,8464
2017-12-28T17:24:57.189Z,8300
2017-12-28T17:25:25.271Z,8140
2017-12-28T17:25:53.369Z,7952
2017-12-28T17:26:21.435Z,7760
2017-12-28T17:26:49.302Z,7520
2017-12-28T17:27:17.400Z,7308
2017-12-28T17:27:45.563Z,7120
2017-12-28T17:28:56.597Z,6636
2017-12-28T17:29:24.465Z,6416
2017-12-28T17:29:52.441Z,6208
2017-12-28T17:30:20.631Z,6076
2017-12-28T17:30:48.706Z,5984
2017-12-28T17:31:16.891Z,5876
2017-12-28T17:31:44.885Z,5756
2017-12-28T17:32:12.849Z,5640
2017-12-28T17:32:41.023Z,5532
2017-12-28T17:33:09.215Z,5456
2017-12-28T17:33:37.273Z,5464
2017-12-28T17:34:48.507Z,5572
2017-12-28T17:35:16.370Z,5648
2017-12-28T17:35:44.471Z,5736
2017-12-28T17:36:12.538Z,5816
2017-12-28T17:36:40.606Z,5892
2017-12-28T17:37:08.590Z,5956
2017-12-28T17:37:36.684Z,6004
2017-12-28T17:38:04.840Z,6012
2017-12-28T17:38:32.906Z,5988
2017-12-28T17:39:01.003Z,5996
2017-12-28T17:39:28.963Z,6000
2017-12-28T17:40:40.099Z,5944
2017-12-28T17:41:08.270Z,5944
2017-12-28T17:41:36.444Z,5936
2017-12-28T17:42:04.539Z,5908
2017-12-28T17:42:32.709Z,5844
2017-12-28T17:43:00.897Z,5776
2017-12-28T17:43:28.887Z,5704
2017-12-28T17:43:57.049Z,5588
2017-12-28T17:44:25.209Z,5536
2017-12-28T17:44:53.301Z,5524
2017-12-28T17:45:21.263Z,5504
2017-12-28T17:46:32.498Z,5340
2017-12-28T17:47:00.370Z,5332
2017-12-28T17:47:28.441Z,5356
2017-12-28T17:47:56.337Z,5364
2017-12-28T17:48:24.305Z,5376
2017-12-28T17:48:52.488Z,5428
2017-12-28T17:49:20.682Z,5484
2017-12-28T17:49:48.844Z,5544
2017-12-28T17:50:16.835Z,5576
2017-12-28T17:50:45.006Z,5636
2017-12-28T17:51:13.060Z,5700
2017-12-28T17:52:24.093Z,5936
2017-12-28T17:52:52.264Z,6000
2017-12-28T17:53:20.435Z,6044
2017-12-28T17:53:48.422Z,6108
2017-12-28T17:54:16.589Z,6164
2017-12-28T17:54:44.674Z,6204
2017-12-28T17:55:12.868Z,6228
2017-12-28T17:55:40.827Z,6248
2017-12-28T17:56:08.891Z,6280
2017-12-28T17:56:36.984Z,6328
2017-12-28T17:57:04.940Z,6384
2017-12-28T17:58:16.074Z,6512
2017-12-28T17:58:44.141Z,6568
2017-12-28T17:59:12.318Z,6624
2017-12-28T17:59:40.507Z,6676
2017-12-28T18:00:08.476Z,6720
2017-12-28T18:00:36.560Z,6756
2017-12-28T18:01:04.651Z,6772
2017-12-28T18:01:32.712Z,6772
2017-12-28T18:02:00.783Z,6756
2017-12-28T18:02:28.779Z,6728
2017-12-28T18:02:56.936Z,6700
2017-12-28T18:04:08.171Z,6620
2017-12-28T18:04:36.239Z,6592
2017-12-28T18:05:04.320Z,6556
2017-12-28T18:05:32.406Z,6532
2017-12-28T18:06:00.175Z,6508
2017-12-28T18:06:28.159Z,6488
2017-12-28T18:06:56.252Z,6472
2017-12-28T18:07:24.210Z,6468
2017-12-28T18:07:52.172Z,6460
2017-12-28T18:08:20.362Z,6460
2017-12-28T18:08:48.417Z,6444
2017-12-28T18:09:59.554Z,6512
2017-12-28T18:10:27.616Z,6572
2017-12-28T18:10:55.691Z,6648
2017-12-28T18:11:23.883Z,6740
2017-12-28T18:11:51.954Z,6848
2017-12-28T18:12:20.123Z,6964
2017-12-28T18:12:48.247Z,7088
2017-12-28T18:13:16.401Z,7196
2017-12-28T18:13:44.564Z,7248
2017-12-28T18:14:12.806Z,7300
2017-12-28T18:14:40.620Z,7348
2017-12-28T18:15:51.859Z,7400
2017-12-28T18:16:19.731Z,7432
2017-12-28T18:16:47.701Z,7504
2017-12-28T18:17:15.795Z,7568
2017-12-28T18:17:43.866Z,7596
2017-12-28T18:18:11.957Z,7636
2017-12-28T18:18:39.850Z,7696
2017-12-28T18:19:07.714Z,7748
2017-12-28T18:19:35.774Z,7740
2017-12-28T18:20:03.769Z,7720
2017-12-28T18:20:31.732Z,7688
2017-12-28T18:21:42.770Z,7596
2017-12-28T18:22:10.741Z,7536
2017-12-28T18:22:38.716Z,7472
2017-12-28T18:23:06.806Z,7412
2017-12-28T18:23:34.776Z,7364
2017-12-28T18:24:02.765Z,7332
2017-12-28T18:24:30.754Z,7348
2017-12-28T18:24:58.815Z,7400
2017-12-28T18:25:26.883Z,7496
2017-12-28T18:25:54.984Z,7632
2017-12-28T18:26:23.044Z,7744
2017-12-28T18:27:34.079Z,7848
2017-12-28T18:28:02.248Z,7844
2017-12-28T18:28:30.224Z,7828
2017-12-28T18:28:58.414Z,7800
2017-12-28T18:29:26.386Z,7792
2017-12-28T18:29:54.471Z,7788
2017-12-28T18:30:22.470Z,7756
2017-12-28T18:30:50.432Z,7700
2017-12-28T18:31:18.501Z,7660
2017-12-28T18:31:46.598Z,7656
2017-12-28T18:32:14.758Z,7664
2017-12-28T18:33:25.797Z,7672
2017-12-28T18:33:53.768Z,7756
2017-12-28T18:34:21.947Z,7732
2017-12-28T18:34:50.033Z,7744
2017-12-28T18:35:18.208Z,7720
2017-12-28T18:35:46.295Z,7724
2017-12-28T18:36:14.390Z,7756
2017-12-28T18:36:42.454Z,7792
2017-12-28T18:37:10.621Z,7824
2017-12-28T18:37:38.616Z,7860
2017-12-28T18:38:06.674Z,7884
2017-12-28T18:39:17.812Z,7904
2017-12-28T18:39:45.878Z,7956
2017-12-28T18:40:13.949Z,7872
2017-12-28T18:40:41.949Z,7844
2017-12-28T18:41:09.916Z,7824
2017-12-28T18:41:38.001Z,7784
2017-12-28T18:42:05.991Z,7764
2017-12-28T18:42:33.856Z,7780
2017-12-28T18:43:01.718Z,7724
2017-12-28T18:43:29.818Z,7608
2017-12-28T18:43:57.776Z,7540
2017-12-28T18:45:08.911Z,7332
2017-12-28T18:45:36.879Z,7232
2017-12-28T18:46:05.049Z,7120
2017-12-28T18:46:33.146Z,7012
2017-12-28T18:47:01.118Z,6932
2017-12-28T18:47:29.206Z,6848
2017-12-28T18:47:57.206Z,6760
2017-12-28T18:48:25.070Z,6664
2017-12-28T18:48:53.139Z,6532
2017-12-28T18:49:21.234Z,6368
2017-12-28T18:49:49.299Z,6212
2017-12-28T18:51:00.534Z,5832
2017-12-28T18:51:28.504Z,5716
2017-12-28T18:51:56.679Z,5616
2017-12-28T18:52:24.875Z,5548
2017-12-28T18:52:52.848Z,5496
2017-12-28T18:53:21.032Z,5468
2017-12-28T18:53:49.124Z,5464
2017-12-28T18:54:17.285Z,5480
2017-12-28T18:54:45.350Z,5452
2017-12-28T18:55:13.345Z,5416
2017-12-28T18:55:41.304Z,5376
2017-12-28T18:56:52.345Z,5216
2017-12-28T18:57:20.318Z,5124
2017-12-28T18:57:48.298Z,5020
2017-12-28T18:58:16.390Z,4924
2017-12-28T18:58:44.264Z,4836
2017-12-28T18:59:12.250Z,4764
2017-12-28T18:59:40.348Z,4704
2017-12-28T19:00:08.303Z,4660
2017-12-28T19:00:36.373Z,4628
2017-12-28T19:01:04.569Z,4588
2017-12-28T19:01:32.729Z,4540
2017-12-28T19:02:43.866Z,4392
2017-12-28T19:03:11.834Z,4332
2017-12-28T19:03:40.009Z,4264
2017-12-28T19:04:08.000Z,4196
2017-12-28T19:04:36.071Z,4128
2017-12-28T19:05:04.255Z,4056
2017-12-28T19:05:32.349Z,3980
2017-12-28T19:06:00.506Z,3912
2017-12-28T19:06:28.673Z,3872
2017-12-28T19:06:56.767Z,3840
2017-12-28T19:07:24.828Z,3828
2017-12-28T19:08:35.957Z,3880
2017-12-28T19:09:04.125Z,3904
2017-12-28T19:09:32.200Z,3916
2017-12-28T19:10:00.091Z,3920
2017-12-28T19:10:28.165Z,3900
2017-12-28T19:10:56.050Z,3872
2017-12-28T19:11:24.248Z,3840
2017-12-28T19:11:52.310Z,3812
2017-12-28T19:12:20.476Z,3776
2017-12-28T19:12:48.676Z,3744
2017-12-28T19:13:16.640Z,3728
2017-12-28T19:14:27.777Z,3720
2017-12-28T19:14:55.754Z,3736
2017-12-28T19:15:23.831Z,3760
2017-12-28T19:15:51.924Z,3796
2017-12-28T19:16:20.000Z,3812
2017-12-28T19:16:48.097Z,3828
2017-12-28T19:17:16.294Z,3848
2017-12-28T19:17:44.458Z,3860
2017-12-28T19:18:12.626Z,3876
2017-12-28T19:18:40.824Z,3892
2017-12-28T19:19:08.889Z,3888
2017-12-28T19:20:20.022Z,3888
2017-12-28T19:20:47.996Z,3884
2017-12-28T19:21:16.076Z,3888
2017-12-28T19:21:44.067Z,3884
2017-12-28T19:22:12.138Z,3864
2017-12-28T19:22:40.323Z,3836
2017-12-28T19:23:08.422Z,3820
2017-12-28T19:23:36.480Z,3788
2017-12-28T19:24:04.655Z,3756
2017-12-28T19:24:32.851Z,3724
2017-12-28T19:25:00.810Z,3676
2017-12-28T19:26:12.044Z,3560
2017-12-28T19:26:40.218Z,3544
2017-12-28T19:27:08.196Z,3552
2017-12-28T19:27:36.094Z,3568
2017-12-28T19:28:04.267Z,3584
2017-12-28T19:28:32.257Z,3576
2017-12-28T19:29:00.354Z,3552
2017-12-28T19:29:28.420Z,3528
2017-12-28T19:29:56.591Z,3500
2017-12-28T19:30:24.789Z,3472
2017-12-28T19:30:52.852Z,3440
2017-12-28T19:32:04.087Z,3408
2017-12-28T19:32:32.255Z,3392
2017-12-28T19:33:00.471Z,3376
2017-12-28T19:33:28.631Z,3360
2017-12-28T19:33:56.700Z,3344
2017-12-28T19:34:24.693Z,3356
2017-12-28T19:34:52.893Z,3364
2017-12-28T19:35:20.957Z,3380
2017-12-28T19:35:49.125Z,3408
2017-12-28T19:36:17.323Z,3440
2017-12-28T19:36:45.287Z,3464
2017-12-28T19:37:56.424Z,3536
2017-12-28T19:38:24.594Z,3560
2017-12-28T19:38:52.573Z,3592
2017-12-28T19:39:20.765Z,3628
2017-12-28T19:39:48.641Z,3656
2017-12-28T19:40:16.632Z,3688
2017-12-28T19:40:44.823Z,3712
2017-12-28T19:41:12.889Z,3724
2017-12-28T19:41:40.964Z,3752
2017-12-28T19:42:09.167Z,3780
2017-12-28T19:42:37.332Z,3812
2017-12-28T19:43:48.368Z,3916
2017-12-28T19:44:16.435Z,3980
2017-12-28T19:44:44.513Z,4064
2017-12-28T19:45:12.712Z,4164
2017-12-28T19:45:40.889Z,4252
2017-12-28T19:46:09.076Z,4360
2017-12-28T19:46:37.176Z,4464
2017-12-28T19:47:05.333Z,4560
2017-12-28T19:47:33.505Z,4648
2017-12-28T19:48:01.702Z,4740
2017-12-28T19:48:29.864Z,4828
2017-12-28T19:49:41.102Z,5016
2017-12-28T19:50:09.171Z,5060
2017-12-28T19:50:37.250Z,5076
2017-12-28T19:51:05.443Z,5072
2017-12-28T19:51:33.513Z,5032
2017-12-28T19:52:01.708Z,4960
2017-12-28T19:52:29.803Z,4852
2017-12-28T19:52:57.867Z,4752
2017-12-28T19:53:26.038Z,4684
2017-12-28T19:53:54.137Z,4628
2017-12-28T19:54:22.299Z,4576
2017-12-28T19:55:33.337Z,4436
2017-12-28T19:56:01.309Z,4380
2017-12-28T19:56:29.486Z,4324
2017-12-28T19:56:57.580Z,4292
2017-12-28T19:57:25.653Z,4264
2017-12-28T19:57:53.744Z,4248
2017-12-28T19:58:21.943Z,4240
2017-12-28T19:58:50.008Z,4240
2017-12-28T19:59:18.177Z,4244
2017-12-28T19:59:46.278Z,4276
2017-12-28T20:00:14.340Z,4332
2017-12-28T20:01:25.578Z,4236
2017-12-28T20:01:53.647Z,4176
2017-12-28T20:02:21.725Z,4140
2017-12-28T20:02:49.920Z,4096
2017-12-28T20:03:18.104Z,4068
2017-12-28T20:03:46.200Z,4044
2017-12-28T20:04:14.401Z,4024
2017-12-28T20:04:42.474Z,4016
2017-12-28T20:05:10.644Z,4028
2017-12-28T20:05:38.750Z,4060
2017-12-28T20:06:06.817Z,4140
2017-12-28T20:07:18.051Z,4648
2017-12-28T20:07:46.222Z,5080
2017-12-28T20:08:14.398Z,5508
2017-12-28T20:08:42.496Z,5744
2017-12-28T20:09:10.469Z,5320
2017-12-28T20:09:38.658Z,5988
2017-12-28T20:10:06.855Z,5928
2017-12-28T20:10:35.017Z,5972
2017-12-28T20:11:03.089Z,4800
2017-12-28T20:11:31.281Z,4712
2017-12-28T20:11:59.438Z,4708
2017-12-28T20:13:10.582Z,6508
2017-12-28T20:13:38.753Z,6216
2017-12-28T20:14:06.731Z,5516
2017-12-28T20:14:34.827Z,5308
2017-12-28T20:15:02.804Z,5448
2017-12-28T20:15:30.898Z,5040
2017-12-28T20:15:58.800Z,4928
2017-12-28T20:16:26.966Z,4948
2017-12-28T20:16:55.137Z,5032
2017-12-28T20:17:23.239Z,4948
2017-12-28T20:17:51.419Z,4772
2017-12-28T20:19:02.647Z,4656
2017-12-28T20:19:30.818Z,4556
2017-12-28T20:19:58.792Z,4448
2017-12-28T20:20:26.692Z,4324
2017-12-28T20:20:54.671Z,4192
2017-12-28T20:21:22.866Z,4044
2017-12-28T20:21:50.965Z,3904
2017-12-28T20:22:19.032Z,3748
2017-12-28T20:22:47.005Z,3556
2017-12-28T20:23:15.234Z,3384
2017-12-28T20:23:43.266Z,3208
2017-12-28T20:24:54.518Z,2844
2017-12-28T20:25:22.589Z,2772
2017-12-28T20:25:50.470Z,2712
2017-12-28T20:26:18.671Z,2664
2017-12-28T20:26:46.845Z,2596
2017-12-28T20:27:14.838Z,2512
2017-12-28T20:27:42.937Z,2424
2017-12-28T20:28:10.998Z,2336
2017-12-28T20:28:39.067Z,2260
2017-12-28T20:29:07.270Z,2188
2017-12-28T20:29:35.331Z,2108
2017-12-28T20:30:46.473Z,1944
2017-12-28T20:31:14.542Z,1892
2017-12-28T20:31:42.525Z,1852
2017-12-28T20:32:10.617Z,1808
2017-12-28T20:32:38.699Z,1788
2017-12-28T20:33:06.793Z,1792
2017-12-28T20:33:34.988Z,1800
2017-12-28T20:34:03.054Z,1804
2017-12-28T20:34:31.222Z,1792
2017-12-28T20:34:59.326Z,1772
2017-12-28T20:35:27.486Z,1748
2017-12-28T20:36:38.620Z,1784
2017-12-28T20:37:06.700Z,1828
2017-12-28T20:37:34.879Z,1860
2017-12-28T20:38:03.073Z,1896
2017-12-28T20:38:31.144Z,1956
2017-12-28T20:38:59.341Z,2028
2017-12-28T20:39:27.541Z,2112
2017-12-28T20:39:55.705Z,2164
2017-12-28T20:40:23.776Z,2172
2017-12-28T20:40:51.879Z,2152
2017-12-28T20:41:19.945Z,2128
2017-12-28T20:42:31.081Z,2012
2017-12-28T20:42:59.250Z,2004
2017-12-28T20:43:27.231Z,1888
2017-12-28T20:43:55.233Z,1804
2017-12-28T20:44:23.410Z,1768
2017-12-28T20:44:51.600Z,1788
2017-12-28T20:45:19.699Z,1828
2017-12-28T20:45:47.762Z,1868
2017-12-28T20:46:15.837Z,1908
2017-12-28T20:46:44.046Z,1956
2017-12-28T20:47:12.207Z,1968
2017-12-28T20:48:23.351Z,2084
2017-12-28T20:48:51.426Z,2124
2017-12-28T20:49:19.604Z,2140
2017-12-28T20:49:47.696Z,2152
2017-12-28T20:50:15.773Z,2140
2017-12-28T20:50:43.862Z,2112
2017-12-28T20:51:12.062Z,2096
2017-12-28T20:51:40.024Z,2072
2017-12-28T20:52:08.190Z,2064
2017-12-28T20:52:36.395Z,2076
2017-12-28T20:53:04.552Z,2092
2017-12-28T20:54:15.695Z,2160
2017-12-28T20:54:43.765Z,2164
2017-12-28T20:55:11.846Z,2156
2017-12-28T20:55:40.045Z,2140
2017-12-28T20:56:08.117Z,2124
2017-12-28T20:56:36.313Z,2104
2017-12-28T20:57:04.511Z,2084
2017-12-28T20:57:32.574Z,2072
2017-12-28T20:58:00.746Z,2060
2017-12-28T20:58:28.953Z,2060
2017-12-28T20:58:57.117Z,2064
2017-12-28T21:00:08.360Z,2084
2017-12-28T21:00:36.529Z,2084
2017-12-28T21:01:04.510Z,2080
2017-12-28T21:01:32.710Z,2060
2017-12-28T21:02:00.688Z,2032
2017-12-28T21:02:28.781Z,1988
2017-12-28T21:02:56.985Z,1952
2017-12-28T21:03:25.047Z,1932
2017-12-28T21:03:53.217Z,1924
2017-12-28T21:04:21.415Z,1912
2017-12-28T21:04:49.579Z,1884
2017-12-28T21:06:00.718Z,1808
2017-12-28T21:06:28.895Z,1772
2017-12-28T21:06:56.870Z,1736
2017-12-28T21:07:25.066Z,1700
2017-12-28T21:07:53.140Z,1668
2017-12-28T21:08:21.136Z,1632
2017-12-28T21:08:49.339Z,1596
2017-12-28T21:09:17.303Z,1560
2017-12-28T21:09:45.382Z,1516
2017-12-28T21:10:13.487Z,1472
2017-12-28T21:10:41.642Z,1420
2017-12-28T21:11:52.880Z,1308
2017-12-28T21:12:20.949Z,1268
2017-12-28T21:12:48.932Z,1232
2017-12-28T21:13:16.937Z,1192
2017-12-28T21:13:45.117Z,1156
2017-12-28T21:14:13.203Z,1124
2017-12-28T21:14:41.403Z,1088
2017-12-28T21:15:09.372Z,1056
2017-12-28T21:15:37.536Z,1020
2017-12-28T21:16:05.738Z,984
2017-12-28T21:16:33.901Z,948
2017-12-28T21:17:45.136Z,860
2017-12-28T21:18:13.110Z,828
2017-12-28T21:18:41.191Z,796
2017-12-28T21:19:09.287Z,768
2017-12-28T21:19:37.461Z,740
2017-12-28T21:20:05.654Z,712
2017-12-28T21:20:33.849Z,688
2017-12-28T21:21:01.915Z,660
2017-12-28T21:21:30.081Z,632
2017-12-28T21:21:58.280Z,600
2017-12-28T21:22:26.440Z,576
2017-12-28T21:23:37.683Z,504
2017-12-28T21:24:05.854Z,488
2017-12-28T21:24:33.931Z,468
2017-12-28T21:25:02.036Z,452
2017-12-28T21:25:30.215Z,440
2017-12-28T21:25:58.311Z,432
2017-12-28T21:26:26.512Z,420
2017-12-28T21:26:54.686Z,404
2017-12-28T21:27:22.759Z,392
2017-12-28T21:27:50.971Z,376
2017-12-28T21:28:19.071Z,364
2017-12-28T21:29:30.234Z,328
2017-12-28T21:29:58.428Z,312
2017-12-28T21:30:26.654Z,292
2017-12-28T21:30:54.865Z,280
2017-12-28T21:31:22.948Z,268
2017-12-28T21:31:51.048Z,252
2017-12-28T21:32:19.258Z,240
2017-12-28T21:32:47.245Z,224
2017-12-28T21:33:15.224Z,216
2017-12-28T21:33:43.335Z,204
2017-12-28T21:34:11.518Z,196
2017-12-28T21:35:22.589Z,180
2017-12-28T21:35:50.672Z,172
2017-12-28T21:36:18.776Z,168
2017-12-28T21:36:46.898Z,164
2017-12-28T21:37:14.981Z,164
2017-12-28T21:37:43.096Z,156
2017-12-28T21:38:11.230Z,156
2017-12-28T21:38:39.245Z,148
2017-12-28T21:39:07.455Z,140
2017-12-28T21:39:35.560Z,128
2017-12-28T21:40:03.766Z,120
2017-12-28T21:41:15.041Z,100
2017-12-28T21:41:43.234Z,96
2017-12-28T21:42:11.461Z,92
2017-12-28T21:42:39.616Z,92
2017-12-28T21:43:07.821Z,92
2017-12-28T21:43:36.036Z,92
2017-12-28T21:44:04.263Z,92
2017-12-28T21:44:32.480Z,84
2017-12-28T21:45:00.585Z,80
2017-12-28T21:45:28.808Z,76
2017-12-28T21:45:56.919Z,72
2017-12-28T21:47:08.091Z,60
2017-12-28T21:47:36.184Z,56
2017-12-28T21:48:04.287Z,52
2017-12-28T21:48:32.510Z,52
2017-12-28T21:49:00.606Z,48
2017-12-28T21:49:28.823Z,40
2017-12-28T21:49:57.058Z,44
2017-12-28T21:50:25.090Z,36
2017-12-28T21:50:53.210Z,36
2017-12-28T21:51:21.332Z,32
2017-12-28T21:51:49.474Z,32
2017-12-28T21:53:00.666Z,28
2017-12-28T21:53:28.857Z,28
2017-12-28T21:53:57.078Z,24
2017-12-28T21:54:25.323Z,20
2017-12-28T21:54:53.428Z,24
2017-12-28T21:55:21.458Z,20
2017-12-28T21:55:49.704Z,20
2017-12-28T21:56:17.952Z,16
2017-12-28T21:56:46.072Z,16
2017-12-28T21:57:14.306Z,16
2017-12-28T21:57:42.465Z,12
2017-12-28T21:58:53.677Z,12
2017-12-28T21:59:21.890Z,12
2017-12-28T21:59:50.162Z,12
2017-12-28T22:00:18.455Z,12
2017-12-28T22:00:46.584Z,12
2017-12-28T22:01:14.726Z,8
2017-12-28T22:01:42.898Z,8
2017-12-28T22:02:11.186Z,8
2017-12-28T22:02:39.343Z,8
2017-12-28T22:03:07.488Z,8
2017-12-28T22:03:35.580Z,4
2017-12-28T22:04:46.808Z,8
2017-12-28T22:05:15.024Z,4
2017-12-28T22:05:43.294Z,4
2017-12-28T22:06:11.377Z,4
2017-12-28T22:06:39.610Z,4
2017-12-28T22:07:07.850Z,4
2017-12-28T22:07:36.122Z,0
2017-12-28T22:08:04.418Z,4
2017-12-28T22:08:32.571Z,4
2017-12-28T22:09:00.625Z,4
2017-12-28T22:09:28.898Z,4
2017-12-28T22:10:40.211Z,4
2017-12-28T22:11:08.218Z,0
2017-12-28T22:11:36.395Z,0
2017-12-28T22:12:04.567Z,0
2017-12-28T22:12:32.695Z,0
2017-12-28T22:13:00.827Z,0
2017-12-28T22:13:28.988Z,0
2017-12-28T22:13:57.149Z,0
2017-12-28T22:14:25.380Z,0
2017-12-28T22:14:53.513Z,0
2017-12-28T22:15:21.763Z,0
2017-12-28T22:16:32.875Z,0
2017-12-28T22:17:01.079Z,0
2017-12-28T22:17:29.225Z,0
2017-12-28T22:17:57.181Z,0
2017-12-28T22:18:25.079Z,0
2017-12-28T22:18:53.096Z,0
2017-12-28T22:19:21.234Z,0
2017-12-28T22:19:49.270Z,0
2017-12-28T22:20:17.476Z,0
2017-12-28T22:20:45.409Z,0
2017-12-28T22:21:13.364Z,0
2017-12-28T22:22:24.664Z,0
2017-12-28T22:22:52.778Z,0
2017-12-28T22:23:20.917Z,0
2017-12-28T22:23:48.992Z,0
2017-12-28T22:24:16.793Z,0
2017-12-28T22:24:45.012Z,0
2017-12-28T22:25:13.059Z,0
2017-12-28T22:25:41.205Z,0
2017-12-28T22:26:09.222Z,0
2017-12-28T22:26:37.251Z,0
2017-12-28T22:27:05.385Z,0
2017-12-28T22:28:16.668Z,0
2017-12-28T22:28:44.858Z,0
2017-12-28T22:29:13.068Z,0
2017-12-28T22:29:41.202Z,0
2017-12-28T22:30:09.293Z,0
2017-12-28T22:30:37.403Z,0
2017-12-28T22:31:05.629Z,0
2017-12-28T22:31:33.747Z,0
2017-12-28T22:32:01.940Z,0
2017-12-28T22:32:29.957Z,0
2017-12-28T22:32:57.959Z,0
2017-12-28T22:34:09.231Z,0
2017-12-28T22:34:37.322Z,0
2017-12-28T22:35:05.250Z,0
2017-12-28T22:35:33.375Z,0
2017-12-28T22:36:01.461Z,0
2017-12-28T22:36:29.466Z,0
2017-12-28T22:36:57.579Z,0
2017-12-28T22:37:25.679Z,0
2017-12-28T22:37:53.656Z,0
2017-12-28T22:38:21.759Z,0
2017-12-28T22:38:49.852Z,0
2017-12-28T22:40:00.894Z,0
2017-12-28T22:40:29.073Z,0
2017-12-28T22:40:57.252Z,0
2017-12-28T22:41:25.358Z,0
2017-12-28T22:41:53.330Z,0
2017-12-28T22:42:21.323Z,0
2017-12-28T22:42:49.521Z,0
2017-12-28T22:43:17.395Z,0
2017-12-28T22:43:45.568Z,0
2017-12-28T22:44:13.573Z,0
2017-12-28T22:44:41.632Z,0
2017-12-28T22:45:52.672Z,0
2017-12-28T22:46:20.640Z,0
2017-12-28T22:46:48.617Z,0
2017-12-28T22:47:16.611Z,0
2017-12-28T22:47:44.680Z,0
2017-12-28T22:48:12.868Z,0
2017-12-28T22:48:40.860Z,0
2017-12-28T22:49:09.027Z,0
2017-12-28T22:49:37.097Z,0
2017-12-28T22:50:05.185Z,0
2017-12-28T22:50:33.343Z,0
2017-12-28T22:51:44.574Z,0
2017-12-28T22:52:12.536Z,0
2017-12-28T22:52:40.510Z,0
2017-12-28T22:53:08.397Z,0
2017-12-28T22:53:36.367Z,0
2017-12-28T22:54:04.352Z,0
2017-12-28T22:54:32.446Z,0
2017-12-28T22:55:00.505Z,0
2017-12-28T22:55:28.569Z,0
2017-12-28T22:55:56.561Z,0
2017-12-28T22:56:24.614Z,0
2017-12-28T22:57:35.839Z,0
2017-12-28T22:58:03.701Z,0
2017-12-28T22:58:31.877Z,0
2017-12-28T22:59:00.065Z,0
2017-12-28T22:59:28.131Z,0
2017-12-28T22:59:56.221Z,0
2017-12-28T23:00:24.221Z,0
2017-12-28T23:00:52.275Z,0
2017-12-28T23:01:20.337Z,0
2017-12-28T23:01:48.329Z,0
2017-12-28T23:02:16.382Z,0
2017-12-28T23:03:27.412Z,0
2017-12-28T23:03:55.378Z,0
2017-12-28T23:04:23.250Z,0
2017-12-28T23:04:51.236Z,0
2017-12-28T23:05:19.301Z,0
2017-12-28T23:05:47.389Z,0
2017-12-28T23:06:15.577Z,0
2017-12-28T23:06:43.737Z,0
2017-12-28T23:07:11.901Z,0
2017-12-28T23:07:40.092Z,0
2017-12-28T23:08:08.151Z,0
2017-12-28T23:09:18.987Z,0
2017-12-28T23:09:46.860Z,0
2017-12-28T23:10:14.921Z,0
2017-12-28T23:10:43.018Z,0
2017-12-28T23:11:11.084Z,0
2017-12-28T23:11:39.167Z,0
2017-12-28T23:12:07.156Z,0
2017-12-28T23:12:35.216Z,0
2017-12-28T23:13:03.076Z,0
2017-12-28T23:13:31.168Z,0
2017-12-28T23:13:59.224Z,0
2017-12-28T23:15:10.253Z,0
2017-12-28T23:15:38.118Z,0
2017-12-28T23:16:06.190Z,0
2017-12-28T23:16:34.179Z,0
2017-12-28T23:17:02.251Z,0
2017-12-28T23:17:30.238Z,0
2017-12-28T23:17:58.327Z,0
2017-12-28T23:18:26.391Z,0
2017-12-28T23:18:54.356Z,0
2017-12-28T23:19:22.350Z,0
2017-12-28T23:19:50.306Z,0
2017-12-28T23:21:01.336Z,0
2017-12-28T23:21:29.500Z,0
2017-12-28T23:21:57.572Z,0
2017-12-28T23:22:25.661Z,0
2017-12-28T23:22:53.631Z,0
2017-12-28T23:23:21.816Z,0
2017-12-28T23:23:50.007Z,0
2017-12-28T23:24:18.063Z,0
2017-12-28T23:24:46.030Z,0
2017-12-28T23:25:14.217Z,0
2017-12-28T23:25:42.377Z,0
2017-12-28T23:26:53.517Z,0
2017-12-28T23:27:21.677Z,0
2017-12-28T23:27:49.750Z,0
2017-12-28T23:28:17.841Z,0
2017-12-28T23:28:45.812Z,0
2017-12-28T23:29:13.997Z,0
2017-12-28T23:29:42.089Z,0
2017-12-28T23:30:10.149Z,0
2017-12-28T23:30:38.119Z,0
2017-12-28T23:31:06.207Z,0
2017-12-28T23:31:34.269Z,0
2017-12-28T23:32:45.405Z,0
2017-12-28T23:33:13.373Z,0
2017-12-28T23:33:41.444Z,0
2017-12-28T23:34:09.536Z,0
2017-12-28T23:34:37.701Z,0
2017-12-28T23:35:05.587Z,0
2017-12-28T23:35:33.577Z,0
2017-12-28T23:36:01.639Z,0
2017-12-28T23:36:29.705Z,0
2017-12-28T23:36:57.901Z,0
2017-12-28T23:37:25.856Z,0
2017-12-28T23:38:37.000Z,0
2017-12-28T23:39:05.099Z,0
2017-12-28T23:39:33.141Z,0
2017-12-28T23:40:01.031Z,0
2017-12-28T23:40:29.200Z,0
2017-12-28T23:40:57.286Z,0
2017-12-28T23:41:25.382Z,0
2017-12-28T23:41:53.238Z,0
2017-12-28T23:42:21.406Z,0
2017-12-28T23:42:49.606Z,0
2017-12-28T23:43:17.660Z,0
2017-12-28T23:44:28.696Z,0
2017-12-28T23:44:56.859Z,0
2017-12-28T23:45:24.931Z,0
2017-12-28T23:45:52.921Z,0
2017-12-28T23:46:20.987Z,0
2017-12-28T23:46:48.973Z,0
2017-12-28T23:47:16.969Z,0
2017-12-28T23:47:44.825Z,0
2017-12-28T23:48:12.892Z,0
2017-12-28T23:48:40.889Z,0
2017-12-28T23:49:09.044Z,0
2017-12-28T23:50:20.075Z,0
2017-12-28T23:50:48.041Z,0
2017-12-28T23:51:16.115Z,0
2017-12-28T23:51:44.306Z,0
2017-12-28T23:52:12.471Z,0
2017-12-28T23:52:40.453Z,0
2017-12-28T23:53:08.549Z,0
2017-12-28T23:53:36.415Z,0
2017-12-28T23:54:04.480Z,0
2017-12-28T23:54:32.678Z,0
2017-12-28T23:55:00.741Z,0
2017-12-28T23:56:11.977Z,0
2017-12-28T23:56:40.040Z,0
2017-12-28T23:57:08.013Z,0
2017-12-28T23:57:36.108Z,0
2017-12-28T23:58:04.274Z,0
2017-12-28T23:58:32.267Z,0
2017-12-28T23:59:00.456Z,0
2017-12-28T23:59:28.520Z,0
2017-12-28T23:59:56.686Z,0
